Time;durP1;ratioP1;P1;durP2;ratioP2;P2;SDS_P1;SDS_P2;PMS_P1;PMS_P2;Temp;Humidity;BMP_temperature;BMP_pressure;BME280_temperature;BME280_humidity;BME280_pressure;Samples;Min_cycle;Max_cycle;Signal;HPM_P1;HPM_P2
2024/01/28 00:00:36;;;;;;;18.80;8.43;;;2.50;89.20;;;;;;5113780;27;20031;-88
2024/01/28 00:03:02;;;;;;;17.03;7.63;;;2.60;89.30;;;;;;5111259;27;20034;-89
2024/01/28 00:05:28;;;;;;;23.05;9.05;;;2.50;89.20;;;;;;5133787;27;20440;-90
2024/01/28 00:07:54;;;;;;;12.70;7.70;;;2.50;89.10;;;;;;5108723;27;20035;-88
2024/01/28 00:10:26;;;;;;;17.63;8.37;;;2.50;89.20;;;;;;5108256;28;20083;-89
2024/01/28 00:12:52;;;;;;;14.83;8.17;;;2.50;89.20;;;;;;5136596;28;20129;-87
2024/01/28 00:15:49;;;;;;;13.15;7.68;;;2.50;89.20;;;;;;5142327;27;20050;-86
2024/01/28 00:18:26;;;;;;;19.40;8.50;;;2.50;89.20;;;;;;5138718;27;20043;-88
2024/01/28 00:20:55;;;;;;;15.40;8.17;;;2.90;89.50;;;;;;5140592;27;20042;-88
2024/01/28 00:23:28;;;;;;;12.97;7.07;;;2.40;89.10;;;;;;5136775;27;20039;-87
2024/01/28 00:25:57;;;;;;;17.93;9.03;;;3.30;89.80;;;;;;5130406;27;20054;-87
2024/01/28 00:28:24;;;;;;;14.67;7.33;;;2.40;89.10;;;;;;5116912;28;20032;-87
2024/01/28 00:30:50;;;;;;;16.83;8.60;;;3.10;89.60;;;;;;5130781;28;20035;-87
2024/01/28 00:33:41;;;;;;;18.70;9.27;;;2.50;89.30;;;;;;5141063;27;20027;-87
2024/01/28 00:36:13;;;;;;;17.17;8.10;;;2.40;89.20;;;;;;5111705;28;20066;-88
2024/01/28 00:38:48;;;;;;;18.73;8.37;;;2.30;89.10;;;;;;5146383;27;20019;-87
2024/01/28 00:41:28;;;;;;;23.67;8.77;;;2.30;89.10;;;;;;5119202;28;20089;-88
2024/01/28 00:44:13;;;;;;;19.83;10.67;;;2.10;89.00;;;;;;5140619;28;20043;-88
2024/01/28 00:47:47;;;;;;;33.67;16.77;;;2.30;89.10;;;;;;5136194;28;20032;-88
2024/01/28 00:50:13;;;;;;;20.10;10.50;;;2.20;88.90;;;;;;5114037;27;20395;-87
2024/01/28 00:52:44;;;;;;;20.20;12.17;;;2.20;89.00;;;;;;5109305;28;20051;-88
2024/01/28 00:55:12;;;;;;;19.33;11.83;;;2.00;88.80;;;;;;5093586;28;20086;-87
2024/01/28 00:57:38;;;;;;;25.23;9.90;;;2.80;89.40;;;;;;5075393;28;20076;-86
2024/01/28 01:00:06;;;;;;;18.97;9.30;;;2.10;89.20;;;;;;5088307;28;20037;-87
2024/01/28 01:02:32;;;;;;;24.30;11.23;;;2.00;89.30;;;;;;5081126;28;20126;-87
2024/01/28 01:05:04;;;;;;;18.10;9.53;;;2.00;89.40;;;;;;5081986;28;20035;-87
2024/01/28 01:07:30;;;;;;;18.10;10.07;;;2.00;89.50;;;;;;5095041;28;20478;-84
2024/01/28 01:09:56;;;;;;;20.90;10.57;;;2.00;89.60;;;;;;5080874;28;20065;-84
2024/01/28 01:12:22;;;;;;;15.73;8.87;;;2.00;89.80;;;;;;5096635;28;20044;-83
2024/01/28 01:14:52;;;;;;;22.37;8.60;;;2.00;89.90;;;;;;5089848;28;20434;-83
2024/01/28 01:17:17;;;;;;;19.40;8.10;;;2.00;90.00;;;;;;5096913;28;20035;-83
2024/01/28 01:19:43;;;;;;;14.23;7.87;;;2.00;90.00;;;;;;5117114;27;20119;-84
2024/01/28 01:22:09;;;;;;;16.60;9.20;;;2.00;90.00;;;;;;5101766;27;20380;-83
2024/01/28 01:24:35;;;;;;;15.77;8.27;;;2.00;90.00;;;;;;5098104;27;20028;-83
2024/01/28 01:27:01;;;;;;;13.83;8.53;;;2.00;90.00;;;;;;5103552;27;20054;-83
2024/01/28 01:29:26;;;;;;;16.70;8.97;;;2.00;90.20;;;;;;5102297;28;20031;-83
2024/01/28 01:31:54;;;;;;;18.47;8.67;;;2.00;90.10;;;;;;5125487;27;20051;-83
2024/01/28 01:34:20;;;;;;;18.43;8.60;;;2.10;90.10;;;;;;5114236;27;20156;-84
2024/01/28 01:36:45;;;;;;;18.63;10.00;;;2.00;90.10;;;;;;5113610;27;20550;-84
2024/01/28 01:39:12;;;;;;;20.80;10.83;;;2.00;90.10;;;;;;5116692;27;20118;-84
2024/01/28 01:41:38;;;;;;;26.73;14.63;;;2.00;90.00;;;;;;5115778;27;20100;-84
2024/01/28 01:44:03;;;;;;;28.70;15.00;;;2.00;89.80;;;;;;5146574;27;20028;-84
2024/01/28 01:46:30;;;;;;;36.23;16.37;;;2.00;89.70;;;;;;5119780;27;20045;-83
2024/01/28 01:48:57;;;;;;;19.37;9.37;;;1.90;89.70;;;;;;5118282;27;20043;-84
2024/01/28 01:51:23;;;;;;;20.70;8.33;;;1.90;89.80;;;;;;5109818;27;20039;-83
2024/01/28 01:53:50;;;;;;;15.10;7.60;;;1.90;89.80;;;;;;5139882;27;20051;-83
2024/01/28 01:56:17;;;;;;;19.57;9.00;;;1.90;89.90;;;;;;5119715;27;20050;-83
2024/01/28 01:58:43;;;;;;;23.53;11.90;;;1.90;89.90;;;;;;5117781;27;20032;-84
2024/01/28 02:01:11;;;;;;;19.27;8.03;;;1.90;90.00;;;;;;5118342;27;20036;-84
2024/01/28 02:03:36;;;;;;;17.13;8.00;;;1.60;89.90;;;;;;5118636;27;20481;-84
2024/01/28 02:06:03;;;;;;;25.00;8.80;;;1.90;90.00;;;;;;5089864;27;20128;-84
2024/01/28 02:08:29;;;;;;;23.27;9.13;;;1.90;90.00;;;;;;5104172;27;20248;-83
2024/01/28 02:10:54;;;;;;;18.13;9.20;;;1.90;90.10;;;;;;5103780;27;20081;-83
2024/01/28 02:13:20;;;;;;;23.73;9.53;;;1.90;90.10;;;;;;5115565;27;20042;-83
2024/01/28 02:15:49;;;;;;;20.47;8.73;;;1.90;90.10;;;;;;5121917;27;20035;-83
2024/01/28 02:18:14;;;;;;;18.40;9.27;;;2.00;90.20;;;;;;5104020;27;20067;-83
2024/01/28 02:20:40;;;;;;;20.23;8.73;;;2.00;90.20;;;;;;5099639;27;20042;-84
2024/01/28 02:23:06;;;;;;;19.20;8.30;;;2.00;90.30;;;;;;5119614;27;20084;-84
2024/01/28 02:25:33;;;;;;;17.90;9.43;;;2.00;90.30;;;;;;5104718;27;20032;-84
2024/01/28 02:27:58;;;;;;;20.03;9.73;;;2.00;90.30;;;;;;5115598;27;20110;-84
2024/01/28 02:30:24;;;;;;;24.10;10.10;;;2.00;90.30;;;;;;5100616;28;20067;-84
2024/01/28 02:32:51;;;;;;;25.63;9.83;;;2.00;90.30;;;;;;5116887;27;20504;-84
2024/01/28 02:35:17;;;;;;;19.23;9.87;;;2.10;90.40;;;;;;5105932;27;20130;-83
2024/01/28 02:37:43;;;;;;;22.53;10.70;;;2.10;90.30;;;;;;5120164;27;20082;-83
2024/01/28 02:40:09;;;;;;;19.40;10.23;;;2.10;90.30;;;;;;5102618;27;20062;-83
2024/01/28 02:42:35;;;;;;;20.20;10.07;;;2.10;90.30;;;;;;5116739;27;20038;-83
2024/01/28 02:45:01;;;;;;;20.67;10.07;;;2.10;90.30;;;;;;5120168;27;20048;-83
2024/01/28 02:47:27;;;;;;;21.57;10.30;;;2.10;90.20;;;;;;5119123;27;20051;-83
2024/01/28 02:49:52;;;;;;;19.63;10.50;;;2.10;90.20;;;;;;5115177;27;20047;-83
2024/01/28 02:52:18;;;;;;;22.87;10.73;;;2.10;90.20;;;;;;5117496;27;20468;-83
2024/01/28 02:54:43;;;;;;;20.00;10.10;;;2.20;90.30;;;;;;5119658;27;20036;-83
2024/01/28 02:57:09;;;;;;;23.23;9.93;;;2.20;90.40;;;;;;5114104;27;20035;-83
2024/01/28 02:59:35;;;;;;;23.73;10.17;;;2.20;90.10;;;;;;5104835;28;20039;-84
2024/01/28 03:02:00;;;;;;;20.40;10.13;;;2.20;90.10;;;;;;5120301;27;20035;-83
2024/01/28 03:04:29;;;;;;;22.90;11.03;;;2.20;90.10;;;;;;5104885;27;20043;-83
2024/01/28 03:06:55;;;;;;;23.50;9.87;;;2.20;90.10;;;;;;5117183;27;20452;-83
2024/01/28 03:09:21;;;;;;;23.05;9.75;;;2.20;90.10;;;;;;5102602;28;20036;-83
2024/01/28 03:11:47;;;;;;;14.57;9.30;;;2.20;90.10;;;;;;5113879;27;20406;-83
2024/01/28 03:14:13;;;;;;;19.97;10.07;;;2.20;90.10;;;;;;5116533;27;20051;-83
2024/01/28 03:16:39;;;;;;;17.87;8.87;;;2.30;90.10;;;;;;5110166;27;20484;-83
2024/01/28 03:19:04;;;;;;;18.73;9.63;;;2.30;90.10;;;;;;5116216;27;20035;-83
2024/01/28 03:21:30;;;;;;;27.03;11.10;;;2.30;90.00;;;;;;5105060;27;20093;-83
2024/01/28 03:23:56;;;;;;;22.03;9.80;;;2.30;90.00;;;;;;5116674;27;20032;-83
2024/01/28 03:26:22;;;;;;;21.20;10.40;;;2.30;90.00;;;;;;5102342;27;20556;-83
2024/01/28 03:28:47;;;;;;;16.93;9.50;;;2.30;90.00;;;;;;5111870;28;20035;-83
2024/01/28 03:31:13;;;;;;;23.80;10.53;;;2.30;89.80;;;;;;5139426;28;20050;-83
2024/01/28 03:33:39;;;;;;;18.13;9.57;;;2.30;89.70;;;;;;5129571;27;20126;-83
2024/01/28 03:36:05;;;;;;;17.17;9.10;;;2.50;89.60;;;;;;5104201;28;20468;-83
2024/01/28 03:38:30;;;;;;;15.33;9.17;;;2.30;89.50;;;;;;5127884;27;20099;-83
2024/01/28 03:40:56;;;;;;;20.17;9.10;;;2.30;89.50;;;;;;5126389;28;20051;-82
2024/01/28 03:43:21;;;;;;;20.03;9.43;;;2.30;89.50;;;;;;5111207;28;20436;-83
2024/01/28 03:45:47;;;;;;;21.08;9.18;;;2.30;89.40;;;;;;5119240;28;20087;-83
2024/01/28 03:48:12;;;;;;;16.30;9.47;;;2.30;89.30;;;;;;5115225;27;20043;-83
2024/01/28 03:50:38;;;;;;;21.38;9.38;;;2.30;89.10;;;;;;5111498;28;20032;-83
2024/01/28 03:53:04;;;;;;;17.40;8.80;;;2.40;89.10;;;;;;5114649;28;20065;-83
2024/01/28 03:55:30;;;;;;;14.43;9.20;;;2.30;89.00;;;;;;5115013;28;20047;-83
2024/01/28 03:57:56;;;;;;;20.43;9.57;;;2.30;88.80;;;;;;5117254;28;20036;-83
2024/01/28 04:00:28;;;;;;;18.07;8.60;;;2.30;88.80;;;;;;5114642;28;20063;-83
2024/01/28 04:02:54;;;;;;;20.23;9.50;;;2.30;88.80;;;;;;5121992;28;20043;-83
2024/01/28 04:05:25;;;;;;;21.43;8.97;;;2.30;88.80;;;;;;5128807;28;20166;-83
2024/01/28 04:07:50;;;;;;;13.93;7.87;;;2.30;88.60;;;;;;5100342;28;20032;-83
2024/01/28 04:10:17;;;;;;;18.67;8.80;;;2.30;88.50;;;;;;5114372;28;20039;-83
2024/01/28 04:12:42;;;;;;;16.53;9.30;;;2.90;88.80;;;;;;5102069;28;20036;-83
2024/01/28 04:15:08;;;;;;;21.10;8.73;;;2.30;88.20;;;;;;5124671;27;20511;-83
2024/01/28 04:17:34;;;;;;;16.87;8.90;;;2.30;88.10;;;;;;5117571;28;20039;-83
2024/01/28 04:20:00;;;;;;;17.70;9.13;;;2.20;87.90;;;;;;5098114;28;20039;-83
2024/01/28 04:22:26;;;;;;;16.67;9.20;;;2.20;87.80;;;;;;5098959;28;20116;-83
2024/01/28 04:24:52;;;;;;;18.13;8.83;;;2.20;87.70;;;;;;5103065;28;20443;-83
2024/01/28 04:27:17;;;;;;;17.43;9.43;;;2.20;87.80;;;;;;5112573;28;20068;-83
2024/01/28 04:29:43;;;;;;;17.70;8.57;;;2.10;87.70;;;;;;5120581;28;20031;-83
2024/01/28 04:32:11;;;;;;;19.10;9.40;;;2.10;87.80;;;;;;5111211;27;20035;-84
2024/01/28 04:34:39;;;;;;;18.40;9.77;;;2.10;87.80;;;;;;5129611;27;20126;-84
2024/01/28 04:37:04;;;;;;;17.67;8.10;;;2.10;87.90;;;;;;5115074;27;20048;-83
2024/01/28 04:39:30;;;;;;;23.03;10.53;;;2.00;87.80;;;;;;5114127;27;20040;-83
2024/01/28 04:41:56;;;;;;;18.57;8.70;;;2.00;87.90;;;;;;5115040;27;20485;-83
2024/01/28 04:44:21;;;;;;;17.27;8.53;;;2.00;87.90;;;;;;5114689;27;20044;-83
2024/01/28 04:46:48;;;;;;;20.53;9.00;;;2.00;88.10;;;;;;5122771;27;20088;-83
2024/01/28 04:49:14;;;;;;;18.50;9.33;;;2.00;88.20;;;;;;5105552;27;20055;-83
2024/01/28 04:51:40;;;;;;;17.53;8.80;;;2.00;88.20;;;;;;5119914;27;20062;-84
2024/01/28 04:54:06;;;;;;;18.70;8.37;;;2.00;88.20;;;;;;5103363;27;20044;-83
2024/01/28 04:56:32;;;;;;;17.47;9.97;;;2.00;88.20;;;;;;5115016;27;20096;-83
2024/01/28 04:58:58;;;;;;;17.60;8.60;;;2.00;88.20;;;;;;5104215;27;20040;-83
2024/01/28 05:01:24;;;;;;;17.03;9.00;;;2.00;88.20;;;;;;5122805;27;20126;-83
2024/01/28 05:03:49;;;;;;;16.90;8.43;;;2.00;88.20;;;;;;5099756;28;20036;-83
2024/01/28 05:06:15;;;;;;;20.93;9.27;;;2.00;88.20;;;;;;5119379;27;20144;-84
2024/01/28 05:08:42;;;;;;;16.23;8.47;;;2.00;88.10;;;;;;5120357;27;20031;-83
2024/01/28 05:11:08;;;;;;;18.03;9.10;;;2.00;88.10;;;;;;5112243;27;20169;-83
2024/01/28 05:13:34;;;;;;;18.30;9.80;;;2.00;87.90;;;;;;5104881;27;20043;-88
2024/01/28 05:16:00;;;;;;;22.80;9.30;;;2.00;87.80;;;;;;5104526;28;20043;-89
2024/01/28 05:18:26;;;;;;;20.70;10.27;;;2.00;87.80;;;;;;5117825;27;20044;-87
2024/01/28 05:20:51;;;;;;;21.40;9.27;;;1.90;87.60;;;;;;5113725;27;20032;-87
2024/01/28 05:23:17;;;;;;;17.60;9.37;;;1.90;87.70;;;;;;5112046;27;20096;-88
2024/01/28 05:25:43;;;;;;;21.87;9.97;;;1.90;87.70;;;;;;5109793;27;20028;-88
2024/01/28 05:28:08;;;;;;;17.03;9.30;;;1.90;87.70;;;;;;5095911;27;20491;-88
2024/01/28 05:30:34;;;;;;;18.20;9.43;;;2.10;87.80;;;;;;5103329;28;20406;-87
2024/01/28 05:33:00;;;;;;;23.90;10.07;;;1.90;87.70;;;;;;5115935;27;20066;-87
2024/01/28 05:35:26;;;;;;;20.20;9.37;;;2.10;87.80;;;;;;5117599;27;20066;-87
2024/01/28 05:37:51;;;;;;;17.87;9.27;;;1.80;87.60;;;;;;5119555;27;20487;-87
2024/01/28 05:40:18;;;;;;;19.10;8.60;;;1.80;87.70;;;;;;5113787;27;20673;-87
2024/01/28 05:42:44;;;;;;;18.57;10.20;;;1.80;87.80;;;;;;5097958;27;20042;-87
2024/01/28 05:45:09;;;;;;;17.20;9.67;;;1.80;87.80;;;;;;5119527;27;20397;-88
2024/01/28 05:47:35;;;;;;;17.70;9.73;;;1.80;87.80;;;;;;5107452;27;20114;-88
2024/01/28 05:50:03;;;;;;;23.47;10.67;;;1.80;87.90;;;;;;5116347;27;20035;-88
2024/01/28 05:52:28;;;;;;;15.30;8.80;;;1.80;88.00;;;;;;5115212;27;20047;-89
2024/01/28 05:54:54;;;;;;;16.43;8.53;;;1.80;88.00;;;;;;5105002;27;20040;-87
2024/01/28 05:57:22;;;;;;;20.47;10.03;;;1.80;88.00;;;;;;5103484;27;20049;-87
2024/01/28 05:59:47;;;;;;;17.47;8.47;;;1.80;88.00;;;;;;5109566;28;20049;-87
2024/01/28 06:02:13;;;;;;;17.97;9.20;;;1.80;87.90;;;;;;5112272;28;20039;-89
2024/01/28 06:04:40;;;;;;;18.00;8.63;;;1.80;87.80;;;;;;5115797;27;20125;-89
2024/01/28 06:07:06;;;;;;;17.40;8.97;;;1.70;87.60;;;;;;5099559;27;20138;-89
2024/01/28 06:09:31;;;;;;;17.60;8.73;;;1.70;87.60;;;;;;5114801;27;20516;-88
2024/01/28 06:11:57;;;;;;;18.37;9.23;;;1.70;87.70;;;;;;5095849;27;20032;-88
2024/01/28 06:14:24;;;;;;;16.90;9.43;;;1.70;87.80;;;;;;5103785;27;20095;-88
2024/01/28 06:16:49;;;;;;;20.30;8.67;;;1.70;87.70;;;;;;5103899;27;20527;-88
2024/01/28 06:19:15;;;;;;;21.80;9.67;;;1.70;87.70;;;;;;5113544;27;20046;-88
2024/01/28 06:21:41;;;;;;;16.23;8.97;;;1.70;87.60;;;;;;5102657;27;20035;-88
2024/01/28 06:24:07;;;;;;;18.00;9.17;;;1.70;87.50;;;;;;5113164;27;20038;-88
2024/01/28 06:26:36;;;;;;;18.43;8.40;;;1.60;87.40;;;;;;5113512;27;20486;-88
2024/01/28 06:29:02;;;;;;;17.27;8.87;;;1.60;87.30;;;;;;5100944;28;20027;-88
2024/01/28 06:31:27;;;;;;;18.57;9.20;;;1.60;87.30;;;;;;5111942;27;20462;-89
2024/01/28 06:33:53;;;;;;;18.83;9.20;;;1.50;87.20;;;;;;5108323;28;20122;-87
2024/01/28 06:36:20;;;;;;;17.33;8.67;;;1.60;87.10;;;;;;5097228;27;20046;-87
2024/01/28 06:38:46;;;;;;;19.90;8.67;;;1.50;86.90;;;;;;5117109;27;20100;-84
2024/01/28 06:41:13;;;;;;;20.17;9.10;;;1.50;87.00;;;;;;5103530;27;20047;-83
2024/01/28 06:43:38;;;;;;;17.50;8.80;;;1.40;86.90;;;;;;5117385;27;20039;-83
2024/01/28 06:46:04;;;;;;;18.17;8.13;;;1.40;87.00;;;;;;5115930;27;20081;-83
2024/01/28 06:48:31;;;;;;;16.87;8.93;;;1.40;87.00;;;;;;5116161;27;20046;-83
2024/01/28 06:50:57;;;;;;;16.90;8.30;;;1.30;87.00;;;;;;5103149;27;20070;-83
2024/01/28 06:53:22;;;;;;;19.27;8.57;;;1.30;87.00;;;;;;5113370;28;20067;-83
2024/01/28 06:55:48;;;;;;;16.83;9.00;;;1.30;87.00;;;;;;5076789;28;20036;-83
2024/01/28 06:58:14;;;;;;;17.43;8.93;;;1.20;87.00;;;;;;5094603;27;20402;-83
2024/01/28 07:00:39;;;;;;;19.67;8.70;;;1.20;87.10;;;;;;5101730;28;20036;-83
2024/01/28 07:03:05;;;;;;;20.30;8.67;;;1.20;87.20;;;;;;5135452;27;20046;-83
2024/01/28 07:05:33;;;;;;;17.87;9.00;;;1.20;87.30;;;;;;5139641;27;20031;-83
2024/01/28 07:07:59;;;;;;;18.20;10.10;;;1.10;87.20;;;;;;5155183;27;20036;-83
2024/01/28 07:10:26;;;;;;;19.40;8.63;;;1.10;87.20;;;;;;5125628;27;20402;-83
2024/01/28 07:12:53;;;;;;;14.83;8.57;;;1.10;87.30;;;;;;5149580;27;20043;-83
2024/01/28 07:15:18;;;;;;;17.67;8.80;;;1.00;87.30;;;;;;5128513;28;20830;-83
2024/01/28 07:17:44;;;;;;;15.77;8.67;;;1.10;87.50;;;;;;5136033;27;20040;-83
2024/01/28 07:20:10;;;;;;;18.07;9.13;;;0.90;87.40;;;;;;5138512;27;20039;-83
2024/01/28 07:22:35;;;;;;;16.70;8.60;;;1.00;87.60;;;;;;5139500;27;20046;-83
2024/01/28 07:25:01;;;;;;;17.93;8.73;;;1.00;87.70;;;;;;5114543;28;20016;-83
2024/01/28 07:27:26;;;;;;;18.27;8.53;;;1.00;87.70;;;;;;5129967;28;20043;-83
2024/01/28 07:29:52;;;;;;;16.77;9.27;;;0.90;87.80;;;;;;5128538;28;20076;-84
2024/01/28 07:32:18;;;;;;;18.20;8.67;;;0.90;87.90;;;;;;5104783;28;20040;-84
2024/01/28 07:34:44;;;;;;;19.13;8.77;;;0.90;88.00;;;;;;5115263;28;20031;-84
2024/01/28 07:37:10;;;;;;;19.27;9.30;;;0.90;88.00;;;;;;5144069;28;20099;-83
2024/01/28 07:39:35;;;;;;;15.17;8.43;;;0.90;88.10;;;;;;5118062;28;20039;-83
2024/01/28 07:42:01;;;;;;;15.77;8.10;;;1.10;88.30;;;;;;5139973;27;20043;-83
2024/01/28 07:44:27;;;;;;;15.63;8.03;;;0.90;88.30;;;;;;5118203;28;20046;-83
2024/01/28 07:46:53;;;;;;;14.33;8.20;;;0.90;88.40;;;;;;5125817;28;20024;-83
2024/01/28 07:49:19;;;;;;;16.17;8.20;;;0.90;88.50;;;;;;5123027;28;20034;-83
2024/01/28 07:51:45;;;;;;;15.27;8.63;;;0.90;88.60;;;;;;5113669;28;20038;-83
2024/01/28 07:54:11;;;;;;;16.80;8.50;;;0.80;88.60;;;;;;5099735;28;20060;-83
2024/01/28 07:56:37;;;;;;;19.40;8.33;;;0.90;88.70;;;;;;5134239;28;20027;-83
2024/01/28 07:59:03;;;;;;;16.37;8.13;;;0.90;88.80;;;;;;5136836;28;20069;-83
2024/01/28 08:01:30;;;;;;;13.60;8.57;;;0.90;88.80;;;;;;5136540;28;20047;-83
2024/01/28 08:03:56;;;;;;;19.60;8.37;;;0.90;88.90;;;;;;5115901;27;20114;-83
2024/01/28 08:06:22;;;;;;;19.97;7.63;;;0.90;89.00;;;;;;5112626;27;20031;-83
2024/01/28 08:08:48;;;;;;;15.30;7.50;;;1.00;89.00;;;;;;5103588;28;20065;-83
2024/01/28 08:11:14;;;;;;;18.30;7.77;;;1.00;89.10;;;;;;5131684;27;20032;-83
2024/01/28 08:13:40;;;;;;;18.67;8.03;;;1.00;89.20;;;;;;5122689;28;20043;-83
2024/01/28 08:16:06;;;;;;;15.63;7.50;;;1.00;89.40;;;;;;5132471;27;20036;-83
2024/01/28 08:18:33;;;;;;;19.57;8.10;;;1.10;89.50;;;;;;5099995;28;20096;-83
2024/01/28 08:20:59;;;;;;;19.60;7.03;;;1.20;89.60;;;;;;5113674;27;20181;-83
2024/01/28 08:23:26;;;;;;;11.83;6.40;;;1.30;89.60;;;;;;5104019;27;20089;-83
2024/01/28 08:25:53;;;;;;;12.13;6.20;;;1.40;89.40;;;;;;5122102;27;20442;-83
2024/01/28 08:28:20;;;;;;;13.27;6.00;;;1.50;89.40;;;;;;5113507;27;20039;-83
2024/01/28 08:30:46;;;;;;;13.53;6.17;;;1.60;89.20;;;;;;5124425;27;20135;-84
2024/01/28 08:33:12;;;;;;;15.43;6.10;;;1.60;88.90;;;;;;5114499;27;20054;-83
2024/01/28 08:35:37;;;;;;;13.70;6.10;;;1.70;88.40;;;;;;5127935;27;20119;-83
2024/01/28 08:38:04;;;;;;;11.40;5.83;;;2.50;88.60;;;;;;5121264;27;20058;-83
2024/01/28 08:40:29;;;;;;;16.00;5.23;;;1.90;88.10;;;;;;5120021;27;20044;-83
2024/01/28 08:42:56;;;;;;;12.40;5.43;;;2.20;88.00;;;;;;5108043;28;20663;-83
2024/01/28 08:45:22;;;;;;;15.87;5.17;;;2.00;87.70;;;;;;5111444;27;20075;-83
2024/01/28 08:47:48;;;;;;;13.87;5.30;;;2.10;87.50;;;;;;5109016;28;20118;-83
2024/01/28 08:50:14;;;;;;;11.57;5.60;;;2.10;87.20;;;;;;5120773;27;20118;-83
2024/01/28 08:52:41;;;;;;;11.40;6.43;;;2.20;87.20;;;;;;5113738;27;20040;-83
2024/01/28 08:55:18;;;;;;;11.43;4.97;;;2.30;87.10;;;;;;5192578;22;20126;-88
2024/01/28 08:58:11;;;;;;;13.90;4.90;;;2.40;87.10;;;;;;5038484;28;20057;-89
2024/01/28 09:05:54;;;;;;;10.63;5.67;;;2.70;86.80;;;;;;5417091;22;20045;-89
2024/01/28 09:08:20;;;;;;;9.73;4.40;;;3.60;86.90;;;;;;5249972;22;20045;-89
2024/01/28 09:19:56;;;;;;;13.68;5.57;;;3.40;84.00;;;;;;5210435;22;20048;-89
2024/01/28 09:22:47;;;;;;;9.00;4.13;;;3.50;82.60;;;;;;5708648;22;20092;-88
2024/01/28 09:28:44;;;;;;;13.23;5.80;;;4.50;81.90;;;;;;5256951;22;20036;-87
2024/01/28 09:31:56;;;;;;;9.93;4.85;;;3.60;81.20;;;;;;5375588;22;20036;-88
2024/01/28 09:34:47;;;;;;;9.82;4.63;;;3.90;80.20;;;;;;5248001;22;20059;-87
2024/01/28 09:40:07;;;;;;;10.18;4.43;;;4.10;80.20;;;;;;5878022;22;20046;-87
2024/01/28 09:45:22;;;;;;;11.48;5.00;;;4.30;78.50;;;;;;5138906;23;20061;-88
2024/01/28 09:48:57;;;;;;;10.15;5.38;;;4.40;78.60;;;;;;5082589;28;20039;-91
2024/01/28 09:51:47;;;;;;;10.77;4.17;;;4.60;78.10;;;;;;5714105;22;20060;-89
2024/01/28 09:57:14;;;;;;;13.95;5.47;;;4.80;77.60;;;;;;5379663;22;20512;-82
2024/01/28 09:59:40;;;;;;;10.13;4.85;;;5.50;77.50;;;;;;5011248;28;20042;-83
2024/01/28 10:02:06;;;;;;;8.10;4.45;;;5.00;76.60;;;;;;5024771;28;20045;-82
2024/01/28 10:04:33;;;;;;;12.25;4.90;;;5.40;76.50;;;;;;5027300;28;20033;-82
2024/01/28 10:07:00;;;;;;;7.95;4.30;;;5.10;75.60;;;;;;5025926;28;20042;-82
2024/01/28 10:09:27;;;;;;;10.23;4.07;;;5.20;75.00;;;;;;5006148;28;20133;-84
2024/01/28 10:11:52;;;;;;;12.38;4.50;;;5.30;74.60;;;;;;5014674;28;20144;-82
2024/01/28 10:14:18;;;;;;;11.70;4.55;;;5.30;74.70;;;;;;5011215;28;20500;-82
2024/01/28 10:16:48;;;;;;;8.95;4.28;;;5.40;73.70;;;;;;5022702;28;20033;-82
2024/01/28 10:19:14;;;;;;;10.32;4.28;;;5.40;74.00;;;;;;5001618;28;20037;-82
2024/01/28 10:21:42;;;;;;;9.95;4.43;;;5.50;74.40;;;;;;5005900;28;20537;-82
2024/01/28 10:24:11;;;;;;;11.15;5.03;;;5.60;74.00;;;;;;5008505;28;20109;-81
2024/01/28 10:26:37;;;;;;;8.57;4.65;;;5.60;73.80;;;;;;5028752;28;20033;-82
2024/01/28 10:29:03;;;;;;;7.85;3.67;;;5.70;73.40;;;;;;5026895;28;20034;-82
2024/01/28 10:31:29;;;;;;;9.15;4.35;;;5.80;73.00;;;;;;5008284;28;20044;-82
2024/01/28 10:33:55;;;;;;;9.18;4.53;;;5.80;72.60;;;;;;5010952;28;20408;-82
2024/01/28 10:36:21;;;;;;;7.25;3.95;;;6.20;72.00;;;;;;5034164;28;20032;-82
2024/01/28 10:38:48;;;;;;;7.53;4.50;;;5.90;71.90;;;;;;5025424;28;20077;-82
2024/01/28 10:41:18;;;;;;;7.70;3.95;;;6.00;71.80;;;;;;5027934;28;20037;-82
2024/01/28 10:43:50;;;;;;;11.73;4.90;;;6.00;71.50;;;;;;5027157;28;20041;-82
2024/01/28 10:46:19;;;;;;;6.80;3.70;;;6.10;70.90;;;;;;5050927;28;20112;-82
2024/01/28 10:48:50;;;;;;;11.10;3.97;;;6.20;71.10;;;;;;5023851;28;20044;-82
2024/01/28 10:51:17;;;;;;;8.90;3.72;;;6.20;70.90;;;;;;5031052;28;20037;-82
2024/01/28 10:53:45;;;;;;;8.45;3.65;;;6.20;71.20;;;;;;5007294;28;20041;-83
2024/01/28 10:56:12;;;;;;;9.80;3.97;;;6.30;71.30;;;;;;5009082;28;20054;-83
2024/01/28 10:58:39;;;;;;;7.93;3.85;;;6.30;70.30;;;;;;5003862;28;20485;-83
2024/01/28 11:01:06;;;;;;;6.93;4.07;;;6.90;70.30;;;;;;4991980;28;20040;-82
2024/01/28 11:03:33;;;;;;;8.35;3.28;;;6.40;69.30;;;;;;5006931;28;20409;-82
2024/01/28 11:06:00;;;;;;;8.02;4.22;;;6.40;68.50;;;;;;5000162;28;20040;-82
2024/01/28 11:08:26;;;;;;;7.13;3.60;;;6.40;68.70;;;;;;5003885;28;20038;-82
2024/01/28 11:10:52;;;;;;;11.88;4.22;;;6.50;68.30;;;;;;5010070;28;20061;-82
2024/01/28 11:13:18;;;;;;;7.50;3.72;;;6.50;68.60;;;;;;5006145;28;20092;-82
2024/01/28 11:15:47;;;;;;;5.78;3.60;;;6.50;68.00;;;;;;4986200;28;20125;-82
2024/01/28 11:18:15;;;;;;;9.50;3.55;;;6.50;66.80;;;;;;4983627;28;20084;-82
2024/01/28 11:20:40;;;;;;;10.15;3.58;;;6.50;67.30;;;;;;5029141;28;20053;-82
2024/01/28 11:23:15;;;;;;;9.70;3.42;;;6.50;67.50;;;;;;5005605;28;20456;-82
2024/01/28 11:25:42;;;;;;;8.70;4.90;;;6.50;67.00;;;;;;5006320;28;20030;-82
2024/01/28 11:28:07;;;;;;;9.60;4.28;;;6.50;67.90;;;;;;5010640;28;20033;-82
2024/01/28 11:30:34;;;;;;;10.07;5.15;;;6.50;67.90;;;;;;5005947;28;20044;-83
2024/01/28 11:33:13;;;;;;;10.07;4.70;;;6.50;67.60;;;;;;5001867;28;20056;-83
2024/01/28 11:35:45;;;;;;;9.90;5.20;;;6.50;66.80;;;;;;5008041;28;20069;-83
2024/01/28 11:38:18;;;;;;;10.00;5.40;;;6.60;67.10;;;;;;4992672;28;20063;-82
2024/01/28 11:46:49;;;;;;;9.70;4.22;;;6.60;66.50;;;;;;5929274;22;20120;-88
2024/01/28 12:02:38;;;;;;;6.75;3.47;;;6.90;66.80;;;;;;5138275;23;20084;-86
2024/01/28 12:10:26;;;;;;;8.18;3.58;;;6.90;67.30;;;;;;5889021;23;20051;-88
2024/01/28 12:29:20;;;;;;;7.95;3.47;;;7.30;66.90;;;;;;4949502;29;20038;-86
2024/01/28 12:40:31;;;;;;;8.63;3.70;;;7.20;66.50;;;;;;5416700;23;20043;-88
2024/01/28 12:42:57;;;;;;;8.77;4.00;;;7.90;67.10;;;;;;4975075;28;20054;-89
2024/01/28 12:45:23;;;;;;;6.57;3.33;;;7.20;65.80;;;;;;4997831;28;20039;-82
2024/01/28 12:47:48;;;;;;;6.43;2.97;;;7.30;65.60;;;;;;5012469;28;20039;-81
2024/01/28 12:50:14;;;;;;;7.47;3.15;;;7.30;65.50;;;;;;5010204;28;20047;-81
2024/01/28 12:52:40;;;;;;;8.00;3.35;;;7.90;66.40;;;;;;4998057;28;20133;-81
2024/01/28 12:55:06;;;;;;;7.63;3.00;;;7.30;65.00;;;;;;4996004;28;20038;-80
2024/01/28 12:57:32;;;;;;;7.07;2.75;;;7.40;65.40;;;;;;4980214;28;20038;-82
2024/01/28 12:59:58;;;;;;;8.57;2.97;;;7.90;65.70;;;;;;4985193;28;20045;-82
2024/01/28 13:02:24;;;;;;;7.65;3.13;;;7.40;65.30;;;;;;5004372;28;20046;-82
2024/01/28 13:04:50;;;;;;;8.48;3.20;;;7.40;64.20;;;;;;5021248;28;20033;-82
2024/01/28 13:07:15;;;;;;;7.18;2.40;;;7.40;64.50;;;;;;4972799;28;20038;-82
2024/01/28 13:09:41;;;;;;;8.55;3.38;;;7.40;65.00;;;;;;5005076;28;20038;-82
2024/01/28 13:12:07;;;;;;;5.43;2.78;;;7.40;64.80;;;;;;5028220;28;20129;-82
2024/01/28 13:14:32;;;;;;;6.90;2.78;;;7.40;64.30;;;;;;5010811;28;20042;-82
2024/01/28 13:16:58;;;;;;;6.07;2.40;;;7.50;63.60;;;;;;5010680;28;20074;-82
2024/01/28 13:19:24;;;;;;;8.75;3.13;;;7.50;63.90;;;;;;5004953;28;20049;-82
2024/01/28 13:21:49;;;;;;;8.25;2.92;;;7.60;64.10;;;;;;5001766;28;20056;-82
2024/01/28 13:24:15;;;;;;;6.55;3.15;;;7.70;63.30;;;;;;4991641;28;20049;-82
2024/01/28 13:26:41;;;;;;;9.43;3.85;;;7.70;63.00;;;;;;4990416;28;20054;-82
2024/01/28 13:29:06;;;;;;;7.78;2.78;;;7.80;63.20;;;;;;5023196;28;20029;-82
2024/01/28 13:31:32;;;;;;;9.07;4.00;;;7.90;62.50;;;;;;5004616;28;20046;-82
2024/01/28 13:33:58;;;;;;;7.57;2.85;;;8.00;62.70;;;;;;4993640;28;20511;-82
2024/01/28 13:36:23;;;;;;;5.35;2.88;;;8.00;63.00;;;;;;5002551;28;20038;-82
2024/01/28 13:38:49;;;;;;;6.50;3.25;;;8.00;62.70;;;;;;5003664;28;20050;-82
2024/01/28 13:41:15;;;;;;;9.30;4.07;;;8.10;63.00;;;;;;5010754;28;20057;-82
2024/01/28 13:43:41;;;;;;;7.80;3.03;;;8.10;63.00;;;;;;5026288;28;20054;-82
2024/01/28 13:46:07;;;;;;;5.55;2.85;;;8.10;62.60;;;;;;4989507;28;20043;-82
2024/01/28 13:48:32;;;;;;;10.55;3.78;;;8.20;62.50;;;;;;5007225;28;20041;-82
2024/01/28 13:50:58;;;;;;;8.10;3.40;;;8.10;62.50;;;;;;5005463;28;20085;-82
2024/01/28 13:53:23;;;;;;;5.75;3.38;;;8.20;62.00;;;;;;4991201;28;20041;-82
2024/01/28 13:55:49;;;;;;;7.85;3.67;;;8.20;61.20;;;;;;5005662;28;20412;-81
2024/01/28 13:58:20;;;;;;;7.45;3.35;;;8.20;60.40;;;;;;5009909;28;20500;-82
2024/01/28 14:00:47;;;;;;;5.57;3.00;;;8.30;60.30;;;;;;5005397;28;20042;-81
2024/01/28 14:03:12;;;;;;;6.38;2.90;;;8.30;60.20;;;;;;5024085;28;20048;-83
2024/01/28 14:05:40;;;;;;;7.55;3.15;;;8.50;60.10;;;;;;4993556;28;20456;-82